Race Results for
Alexian Brothers Tour of Elk Grove
Elk Grove Village, IL
(Event Information)
Criterium on 08/01/2009

Note: Ranking points are NOT upgrade points. An explanation of ranking points can be found here.


Men - Cat 5 Heat 2

 Place Points NameCity, StateTime USAC #BibTeam
1Hammer Bjorn   0:23:05  151 XXX Racing
2Cohen Adam   0:23:05  112 MS Racing/Pony Shop
3O'Hara Patrick   0:23:05  132 Northbrook Garner
4460.23Jan VanMieghem   Evanston, IL0:23:05 288310  146 MS Racing
5Meyer Charles   0:23:05  131 xXx Racing-AthletiCo.
6Van Couvering Ben   0:23:05  145 Team Pegasus
7Iwama Yuki   0:23:05  125 NONE
8Curyllo Artur   0:23:05  114 N/A
9Janokjanc Richard   0:23:05  126 None
10Inzunza Richard   0:23:05  124 Unattached
11witt konrad   0:23:05  148 ABD
12THOMPSON RAYMOND   0:23:05  144 RIVIT CYCLING
13Hardesty Brandon   0:23:05  121 None
14Isaacs Don   0:23:05  150 Bicycle Heaven
15Parker Steve   0:23:05  133 Unattached
16Bowers David   0:23:05  105 Half Acre Cycling
17Kiner Jon   0:23:05  127 None
18Schnur Nathan   0:23:05  138 none
19Buddell Kenneth   0:23:05  108 Unattatched
20Eldridge Curtis   0:23:05  118 xxx
21Armstrong Trent   0:23:05  102 Alexian Brothers
22Shivvers Eric   0:23:05  140 Half Acre Cycling
23Lasserre Pierre   0:23:05  129 Turin Bicycling Society
24Kula Gary   0:23:05  128 Athletes By Design
25carrillo jose   0:23:05  111 n/a
26Brogan Stuart   0:23:05  106 unattached
27Gans Ken   0:23:05  119 n/a
28Vargas George   0:23:05  147 Turin Bicycling Society
29Dixon Brandon   0:23:05  116 NONE
30bardelli matteo   0:23:05  103 Bicycle Heaven
31Spokas Eric   0:23:05  142 NONE
32Cudworth Christopher   0:23:05  113 Athletes By Design
33Piotrowski Brian   0:23:05  134 Bradley University
34Rosenthal Nate   0:23:05  137 Coyote Hill Mountain Bike Camps
35Popelka Jeff   0:23:05  135 Unattached
36Arata Adam   0:23:05  101 Team Me
37Hernandez Elias   0:23:05  122 NONE
38Sullivan Patrick   0:23:05  143 xXx Racing - AthletiCo
39Rodriguez Tommy   0:23:05  152 Vision Quest
40Dungo Ross   0:23:05  117 SPINDOCTOR CYCLING CLUB
41Brown Sage   0:23:05  153 Pegasus
42DeHaan Nate   0:23:05  115 none
43PRZYBYLOWICZ KRZYSZTOF   0:23:05  136 KICIAK
44Brownlee Kristopher   0:23:05  107 Honeywell Cycling
45Hoskins Wes   0:23:05  123 Colativa
46Scott Chris   0:23:05  139 Trouser Mouse
47Kumamoto Ian   0:23:05  149 

Men - Cat 5 Heat 1

 Place Points NameCity, StateTime USAC #BibTeam
1Diffenderfer Brandon   0:22:50  Unattached
2Eldridge Curtis   0:22:50  10 xxx racing
3Janokjanc Richard   0:22:50  15 None
4Seitz Herb   0:22:50  25 xXx Racing - Athletico
5474.50Jan VanMieghem   Evanston, IL0:22:50 288310  30 MS Racing
6Dunat John   0:22:50  37 
7Scott Geoff   0:22:50  24 Get a Grip Cycles
8Mudrewicz Cezary   0:22:50  19 276224
9488.93Sean Fitzpatrick   Chicago, IL0:22:50 297407  40 Unattached
10Kiner Jon   0:22:50  43 
11Wilkie Michael   0:22:50  33 ABD
12Wolfe Raviv   0:22:50  35 Endure It Racing!
13ganas george   0:22:50  11 Team Mack
14Bowers David   0:22:50  Half Acre Cycling
15Moisessian Mases   0:22:50  38 
16Lasserre Pierre   0:22:50  16 Turin Bicycle Society
17517.81Kyle Tabor   Palos Hills, IL0:22:50 248827  28 Bicycle Heaven
18Krula Greg   0:22:50  42 
19Lund Isaac   0:22:50  41 Cat 5
20Vercillo Anthony   0:22:50  44 Teog
21Bianchi Emanuele   0:22:50  XXX racing athletico
22Sigman Nick   0:22:50  36 
23Meza Carlos   0:22:50  18 none
24Brown Kevin   0:22:50  Unattached
25Sullivan Patrick   0:22:50  45 xXx Racing
26Vargas George   0:22:50  31 Turin Bicycling Society
27Treuthart Alan   0:22:50  29 xXx Racing-Athletico
28da Silva Daniel   0:22:50  none
29561.12Kevin Mead   Aurora, IL0:22:50 308721  17 Unattached
30Williams Robert   0:22:50  34 none
31armstrong pete   0:22:50  HCC
32Pietka Kevin   0:22:50  22 none
33Garcia Cesar   0:22:50  12 none
34Wegrzyn Dan   0:22:50  32 none
35Munsen Paul   0:22:50  21 None
36Bianchi Samuele   0:22:50  xxx racing athletico
37Rincon Raymundo   0:22:50  39 Stone Gate

Men - Cat 1/2

 Place Points NameCity, StateTime USAC #BibTeam
1193.71Frank Travieso   Athens, GA1:25:24 160295  51 champion porsche
2196.38Jeffrey Schroetlin   Argenta, IL1:25:24 66615  45 ABD Cycling Team
3199.05James Stemper (1 - Cat1)   Wauwatosa, WI1:25:24 230799  49 team GEARGRINDER
4Kyle Jacobson   1:25:24  29 ISCORP
5Matthew Busch   1:25:24  77 ISCORP
6207.06Marco Aledia   Worthington, OH1:25:24 58428  Kenda Pro Cycling p/b Spinergy
7209.73Chad Cagle   Tulsa, OK1:25:24 141654  13 Mercy Cycling
8212.40Mike Sherer   Boulder, CO1:25:24 232977  62 Alderfer Bergen
9Clayton Goldsmith   1:25:24  24 Wheel & Sprocket
10217.74Yosvany Falcon   Miami, FL1:25:24 208086  21 champion porsche
11Steve Tivaey   1:25:24  79 Tradewind Energy/ Trek Bicycle Stores
12223.08Victor Ayala   1:25:24 128496  Kahala-LaGrange
13225.75Aaron Hubbell   Durham, NH1:25:24 54434  28 NUVO Cultural Trail
14Bryan Fowley   1:25:24  85 Park Place Dealership
15231.09Andrew Crater   Greenville , SC1:25:24 70612  17 Wheel & Sprocket
16233.76Zachary Davies   Boulder, CO1:25:24 182034  18 Subaru-Vista Auto Group
17236.43Robert White   Brown Deer, WI1:25:24 197162  53 team GEARGRINDER
18239.10Joshua Carter   Fairview Heights, IL1:25:24 110443  14 ABD Cycling Team
19241.77Chad Hartley (2 - Cat1)   Fox Point, WI1:25:24 126996  27 team GEARGRINDER
20Chris Urbertz   1:25:24  66 Panther/RGF pb Felt
21247.11Ryan Knapp   Columbus, IN1:25:24 161263  32 Panther/ RGF pb Felt
22Ben Weaver   1:25:24  69 NUVO Cultural Trail
23252.45Adam Lesniakowski   Chicago, IL1:25:24 162418  84 Pact Dish Network
24255.12Cory Hickman   Orland Park, IL1:25:24 119288  90 Pact Dish Network
25257.79Steve Scholzen   Shorewood, WI1:25:24 201190  73 ISCORP
26260.46Clayton Feldman   Colorado Springs, CO1:25:24 257674  63 Waste Management
27263.13John Coyle   Streamwood, IL1:25:24 45211  104 Wolverine
28Anthony Bennett   1:25:24  Jittery Joe's U25 pb Kudzu.com
29268.47Robert Kelley   Geneva, IL1:25:24 52765  31 Bicycle Heaven
30271.14Seth Hansley   Pompano Beach, FL1:25:24 201753  26 champion porsche
31273.81Erik Loberg   Cedarburg, WI1:25:24 213434  102 Beans & Barley
32276.48Vincent Roberge   Redford, MI1:25:24 190250  42 Panther/ RGF p/b Felt Bicycles
33279.15Nicholas Coil   Prairie Village, KS1:25:24 195267  78 Tradewind Energy/ Trek Bicycle Stores
34281.82Dave Hackworthy   Hudson, WI1:25:24 211784  58 Bianchi-GP
35284.49Brian Jensen   Lawrence1:25:24 185340  30 Tradewind Energy/ Trek Bicycle Stores
36287.16Kevin Berger   Madison, WI1:25:24 246306  Wheel & Sprocket
37289.83Andrew Armstrong   Dallas, TX1:25:24 187559  Matrix / RBM
38292.50Erik Hamilton   Boulder, CO1:25:24 238111  61 NUVO Cultural Trail
39295.18Harry Clark   Carmel, IN1:25:24 65323  95 Alderfer Bergen
40297.85Dan Teaters   Green Bay , WI1:25:24 214818  50 Beans & Barley
41300.52Ryan Freund   Lake In The Hills, IL1:25:24 279249  22 ABD Cycling Team
42Scott Barnes   1:25:24  PowerBar Team Elite
43Kip Sparck   1:25:24  72 ISCORP
44308.53William Snodgrass (1 - Cat2)   Dallas, TX1:25:24 232735  47 OKC VELO
45311.20Chris Winn   Lakewood, CO1:25:24 292547  54 RMCEF/Westside Cycling
46Ramon Benuez   1:25:24  65 Immediate Mortgage
47316.54Alan Antonuk   Santa Monica, CA1:25:24 200093  97 Essex Brass Racing
48319.21Brian Cornelius   Tucson, AZ1:25:24 178293  16 Landis/TREK
49Heath Blackgrove   1:25:24  10 Team Hotel San Jose
50324.55Andrew Lister   Springfield, IL1:25:24 148168  71 Dogfish
51327.22Brad Schaeffer   Indianapolis, IN1:25:24 206320  80 Team Abundance
52329.89Brett Stewart   Indianapolis, IN1:25:24 206762  60 Alderfer Bergen
53332.56John Meyers   Chicago, IL1:25:24 219373  36 ABD Cycling Team
54335.23Joseph Bosemer   Louisville, KY1:25:24 237064  11 Fetzer Cycling Team
55337.90Tomasz Boba   Des Plaines, IL1:25:24 265181  68 WDT/Allvoi
56Dan Agler   1:25:24  94 
57343.24Eric Bean   Seattle, WA1:25:24 164426  74 ISCORP
58345.91Thomson Remo   Fond Du Lac, WI1:25:24 212914  39 Baraboo Sharks
59348.58Shawn Gravois   Sarasota, FL1:25:24 230009  25 Lindner Capital Cycling
60351.25Phillip Snodgrass   Dallas, TX1:25:24 266817  48 Metro Volkswagen
61353.92Chris Hurst   Lake Geneva, WI1:25:24 229172  82 Wheel & Sprocket
62356.59Luca Lenzi   Wilmette, IL1:25:24 247463  87 Alderfer Bergen
63359.26Brian Rach   Chilton, WI1:25:24 257820  76 ISCORP
64361.93Zach Reed   Edwardsville, IL1:25:24 29400  89 Dogfish Racing
65Frankie Dickiz   1:25:24  93 
66367.27Jorge Alvarado (3 - Cat1)   1:25:24 201024  Kahala-LaGrange
67369.94John Rowley   Pittsburgh, PA1:25:24 175925  96 Indiana Regional Medical
68Frank Rouley   1:25:24  86 South Chicago Wheelman
69375.28Anthony Olson   Kasota, MN1:25:24 245537  56 Bianchi-GP
70Isaac Neff   1:25:24  59 Alderfer Bergen
71Dave Shemo   1:25:24  100 Verizon Wireless
72383.29John Dapkus   Westville, IN1:25:24 64334  67 Bicycle Heaven
73385.96Daniel Lam   Kalamazoo, MI1:25:24 239504  33 TBS Racing
74388.63Jordan Roessingh   Madison, WI1:25:24 170411  75 ISCORP
75Mike Lantz   1:25:24  70 NUVO Cultural Trail
76Dale Senowas   1:25:24  57 Bianchi-GP
77396.64Gregory Christian   St Simons, GA1:25:24 186412  15 Panther/RGF pb Felt
78Will Nowal   1:25:24  88 Alderfer Bergen
79401.98Luis-Alejandro Zamudio   Chula Vista, CA1:25:24 204879  55 Kahala-LaGrange

Men - Cat 3

 Place Points NameCity, StateTime USAC #BibTeam
1301.64Waylon Janowiak   Michigan City, IN1:02:30 258509  67 WDT/ALLVOI
2304.82Paul Wood   Fishers, IN1:02:30 49738  40 MOB Squad
3Henry Lowel   1:02:30  50 Team Pegasus
4311.19Joel Friedman   Aurora, IL1:02:30 293444  66 Bicycle Heaven
5314.37Keith McMahon   Wilmette, IL1:02:30 64020  29 Van Wagner
6317.56Andrew Otte   West Lafayette, IN1:02:30 281578  51 
7320.74Nate Iden   Chicago, IL1:02:30 266664  22 BurnhamRacing
8323.93Ricardo Otero   Park Ridge, IL1:02:30 26910  70 WDT/ALLVOI
9327.11Brandon Feehery   Homewood, IL1:02:30 193035  11 South Chicago Wheelmen
10330.29Carlos Garcia   Addison, IL1:02:30 201560  63 Project 5 Racing
11333.48Blake Voges   Santa Claus, IN1:02:30 256471  61 Sustainable Cycling
12Dan Warren   1:02:30  42 The Hub
13339.84Victor Rentas   Park Ridge, IL1:02:30 166946  31 2CC
14343.03Scott Gifford   Canton, MI1:02:30 113027  15 MCG Racing Team p/b Trails-Edge.com
15Sean Piper   1:02:30  48 Depaul University Cycling
16349.39Dan Greene   Pittsburgh, PA1:02:30 172784  18 iron city bikes
17352.58Karl Schult   Lakewood, IL1:02:30 94072  68 Guinness
18355.76Shane Winn   Pleasantville, NY1:02:30 205561  39 XXX Racing - AthletiCo
19358.95Dan Korienek   Grandville, MI1:02:30 288930  58 Lead Racing
20362.13Brian Hill   Greenville, SC1:02:30 264211  20 Team Get A Grip Cycles
21365.31James Pradun   Kirkwood, MO1:02:30 254851  84 Great Dane Velo Club
22368.50Dean Cohen   Grand Rapids, MI1:02:30 47204  West Michigan Coast Riders
23371.68Adam Leibman   Hoffman Estates, IL1:02:30 278207  26 ABD
24374.86William Vazquez   Fort Collins, CO1:02:30 198621  36 Purdue University
25378.05Sam Stone   North Freedom, WI1:02:30 213424  77 Baraboo Sharks
26381.23randall rodd   Ferndale, MI1:02:30 290060  32 Wolverine sports club
27384.41Nicholas Ramirez   Normal, IL1:02:30 296749  30 unattached
28Newt Colt   1:02:30  47 xXx Racing
29390.78Naveen John   West Lafayette, IN1:02:30 275471  65 Sustainable Cycling
30393.97Kyle Wiberg   Boulder, CO1:02:30 277368  38 xXx Racing AthletiCo
31397.15Nicholas Gierman   Pingree Grove, IL1:02:30 241184  14 Burnham Racing
32400.33David Block   Plymouth, MN1:02:30 241507  71 Bianchi/GP
33403.52William Champion   Merrillville, IN1:02:30 227214  59 South Chicago Wheelmen
34406.70Ben LaForce   Chicago, IL1:02:30 230509  24 Get a Grip Cycles
35409.88Peter Beels   Seattle, WA1:02:30 235743  Leadout/Chicago Drive Cycling
36413.07Chazz Martin   Wilmette, IL1:02:30 230515  27 Nova Sports Cycling / I S Corp
37416.25Matt Silvia   Chicago, IL1:02:30 208232  34 King Keyser
38419.43Derek Hughes   Appleton, WI1:02:30 291716  55 Wheels N Spokes
39422.62Ryan Edwards Bertrand   Bloomington, IL1:02:30 193735  Proctor Cycling Team
40Andriw Truempse   1:02:30  60 xXx Racing
41428.99Matthew Favoino   St Louis, MO1:02:30 252910  64 SLU Cycling
42432.17Eric Blankinship   Chicago, IL1:02:30 265147  54 Depaul University Cycling
43Mark Hotchlein   1:02:30  62 Leadout Racing
44438.54Julian Baumgartner   Chicago, IL1:02:30 215999  Burnham Racing
45Alex Sanctana   1:02:30  52 Team Get A Grip Cycles
46444.90Chris Gola   Chicago, IL1:02:30 251363  16 WDT/ALLVOI
47448.09Liam Donoghue   Glen Ellyn Il1:02:30 206188  10 xXx Racing - AthletiCo
48451.27Jason Knauff   Chicago, IL1:02:30 145455  23 Burnham Racing
49454.45Jon Alvarez   Madison, WI1:02:30 244751  72 5 Nines Cycling
50457.64Daniel Verner   Island Lake, IL1:02:30 51737  80 Pact Dishnetwork
51460.82John Deifel   Bolingbrook, IL1:02:30 65258  44 Project 5 Racing
52464.01Louis Toba   Palo Alto, CA1:02:30 56384  35 Webcor Alto Velo

Men - Cat 4

 Place Points NameCity, StateTime USAC #BibTeam
1407.39Tim Yuska   Oak Park, IL0:37:45 266618  65 Get A Grip
2408.85Samuel Schaefer   Wellesley, MA0:37:45 94975  46 MS Racing
3410.32Craig Simon   Chicago, IL0:37:45 210368  50 Vision Quest
4411.78Michael Shea   Chicago, IL0:37:45 273424  49 Spidermonkey Cycling
5413.24Travis Heller   Parker, CO0:37:45 264205  16 Team Extreme
6414.70Paul Miner   Bartlett, IL0:37:45 251388  31 Spin Doctor Cyclewerks CC
7416.17Renato Sosa   Centerville, OH0:37:45 292086  51 Cyclesport-ZWS
8417.63Michael Vail   Villapark, IL0:37:45 279212  74 ABD
9419.09John Wolters   Seattle, WA0:37:45 287592  63 xXx Racing-AthletiCo
10420.55Jordan Ross   Omaha, NE0:37:45 291825  44 Spidermonkey Cycling
11422.02Quentin Capista   Shorewood, IL0:37:45 268877  WildCard Cycling
12423.48Ryan Meneghin   Dyer, IN0:37:45 291617  29 South Chicago Wheelmen
13424.94Ryan Fay   Chicago, IL0:37:45 288405  10 XXX Racing - AthletiCo
14426.40Michael Jividen   Chicago, IL0:37:45 176370  18 none
15427.87James Cooper   Chicago, IL0:37:45 283578  MS Racing
16429.33Bob Bryant   Wheaton, IL0:37:45 249865  Unattached
17430.79Adam Lueken   Buffalo Grove, IL0:37:45 240723  27 WDT/ALLVOI
18432.25Richard Lenski   Carol Stream, IL0:37:45 275816  24 Spin Doctor Cyclewerks
19433.72Andrew Yeoman   Chicago, IL0:37:45 263056  64 Team Pegasus
20435.18Matthew Nichols   Hanover, NH0:37:45 270026  35 Project 5 Racing
21436.64BOBBY FIELDER   Westmont, IL0:37:45 251588  11 Tower Racing
22438.10Scott Knoepke   Geneva, IL0:37:45 246239  21 Team Bicycle Heaven
23439.57William Pankonin   Boulder, CO0:37:45 273937  36 xXx Racing-AthletiCo
24441.03David Hudson   Chicago, IL0:37:45 286044  17 xxx Racing - Athletico
25442.49Jeffrey Gantz   Green Bay Wi0:37:45 187394  73 Team Extreme
26443.95Cliff Golz   Santa Cruz, CA0:37:45 254308  70 Team MS Racing
27445.42Sean Kozak   Glenview, IL0:37:45 280897  23 xXx Racing - AthletiCo
28446.88jacob teitelbaum   Oakland, CA0:37:45 259005  54 spidermonkey cycling
29448.34Erik Didriksen   Chicago, IL0:37:45 259186  xXx Racing - AthletiCo
30449.80Brian McCarthy   Lockport, IL0:37:45 211084  28 South Chicago Wheelmen
31451.27Bob Karlow   Crystal Lake, IL0:37:45 285533  20 Verdigris Cycling
32452.73Trevor Rolette   Tinley Park, IL0:37:45 226739  43 South Chicago Wheelmen
33454.19Martin Michalowicz   Evanston, IL0:37:45 285523  30 MS Racing Inc./The Pony Shop
34455.65Bob Willems   Chicago, IL0:37:45 217097  68 xXx Racing
35457.12James Londono   Chicago, IL0:37:45 281589  26 WDT/Allvoi
36458.58Chris Hammer   Woodridge, IL0:37:45 91451  15 Wheel Fast Racing
37460.04Albeiro Pineda   Bloomingdale, IL0:37:45 230918  38 WDT / ALLVOI
38461.50Michael Wilkie   Lisle, IL0:37:45 268873  62 ABD
39462.97James Rolette   Tinley Park, IL0:37:45 30450  42 South Chicago Wheelmen
40464.43Thomas Kabacinski   Calidonia, IL0:37:45 191741  19 Bennett's Bikes
41465.89bisi tubic   Naperville, IL0:37:45 278468  57 bisi cycling
42467.36Ben-Jamin Widoff   Woodstock, IL0:37:45 143322  61 Hawaii Cycling Club
43468.82jeff biedka   Elk Grove Vlg, IL0:37:45 267166  unattached
44470.28Josh Tromp   Elk Grove Village, IL0:37:45 280515  56 Turin/Cyberspace Lazer Tag
45471.74Dennis Sandquist   Prairie View, IL0:37:45 265180  45 WDT - Allvoi
46473.21Jared Rogers   Chicago, IL0:37:45 261146  41 xXx Racing - Athletico
47474.67Michael Keller   Orland Hills Il0:37:45 283391  72 SCW
48476.13Christopher Koster   Summit, IL0:37:45 292791  22 xXx AthletiCo Racing
49477.59Matthew Bennett   Chicago, IL0:37:45 274551  VQ
50479.06Robert Curtis   Elgin, IL0:37:45 69094  Bicycle Heaven
51480.52Robert Logan   Jacksonville, FL0:37:45 279786  25 Men of BOB
52481.98Bryan WItry   Chicago, IL0:37:45 290447  69 Spidermonkey Cycling
53483.44Andrew Zens   Chicago, IL0:37:45 276599  71 Spidermonkey Cycling
54484.91Nicholas Venice   Chicago, IL0:37:45 286521  58 XXX Racing - AthletiCo
55Alberto Segura Jr   0:37:45  48 XXX Racing/AthletiCo
56487.83Mauro Fisher   Chicago, IL0:37:45 200462  12 XXX racing Athletico
57489.29Mitch Piekos   Darien, IL0:37:45 246523  37 PROJECT 5 RACING
58490.76Robert Riccio   Spring, TX0:37:45 285448  40 Bicycle Heaven
59Eric Shivukrs   0:37:45  67 Half Acre Cycling
60493.68Darren Monico   Round Lake, IL0:37:45 201292  32 North Branch Cycling Club
61Chris Wigl   0:37:45  75 WDT/Allvoi

Women - Cat 1/2/3

 Place Points NameCity, StateTime USAC #BibTeam
1259.55Laura Van Gilder   Cresco, PA0:46:10 36345  Mellow Mushroom
2Genie Kunajek   0:46:10  22 Team Mack
3278.53Catherine Walberg   Bainbridge Island, WA0:46:10 36933  Team Kenda
4Kristin Meshberg   0:46:10  
5297.50Leigh Hopkins (1 - Cat1)   Decatur, GA0:46:10 142209  Vanderkitten Racing
6Megan Elliot   0:46:10  20 Black Mountain Bicycles
7316.48Kristin Wentworth (2 - Cat1)   Madison, WI0:46:10 207606  Team Kenda
8325.97Terra Kier   Grand Junction Co0:46:10 275073  10 Team Dayton Cycling
9335.46Michelle Jensen   Lawrence, KS0:46:10 180587  Mercy
10344.95Summer OBlack (1 - Cat2)   San Diego, CA0:46:10 288337  12 DeWalt
11Christine Roehger   0:46:10  18 Team Revolution
12363.92Sarah Demerly   Berkley, MI0:46:10 293788  14 Wolverine Sports Club
13373.41Anne Meyer   La Crosse, WI0:46:10 55494  BH USA
14382.90Madeleine Puissant   Milwaukee, WI0:46:10 218400  21 Team BH USA
15Christian Hansler   0:46:10  13 Bike America
16Carrie Cash   0:46:10  19 Team Revolution
17411.37Pamela Loebig   Bloomington, IN0:46:10 241443  17 Alderfer Bergen
18420.85Jennifer Greenberg   Chicago , IL0:46:10 231027  11 Vanderkitten Racing
19430.34Rebecca Finley   Indianapolis, IN0:46:10 245823  Vanderkitten

Women - Cat 3/4

 Place Points NameCity, StateTime USAC #BibTeam
1382.84Pascale Petro   Westmont, IL0:32:30 273317  12 Project 5 Racing
2Amy Stuaffer   0:32:30  19 West Priority Health
3393.57Siobhan Jones   Saint Louis, MO0:32:30 228464  15 Michelob Ultra-Big Shark
4Vannette Rno   0:32:30  26 Bouledogue Toutnor
5404.30Leah Sanda   Western Springs, IL0:32:30 268129  13 Flatlandia
6409.66Rhiannon Jones (1 - Cat3)   Saint Louis, MO0:32:30 230811  16 Michelob Ultra-Big Shark
7Erin Woloszyn   0:32:30  18 Redline/Village Cycle
8420.39Rebecca Finley   Indianapolis, IN0:32:30 245823  Vanderkitten
9Yvonne Schumacker   0:32:30  17 Nova/Iscorp
10431.11Kathryn Garner   Lakewood, CO0:32:30 228980  RMCEF / Westside
11436.47Jessica Helmlinger   Cedarburg, WI0:32:30 255881  24 Café Hollander RDC
12441.84Kimberly Gialdini   Downers Grove, IL0:32:30 289833  ABD
13447.20Lynne Arrigoni   Hoffman Estates, IL0:32:30 9129  Village CycleSport
14452.56Laura Melendez   Grand Rapids, MI0:32:30 225973  West Priority Health
15457.93Terra Kier   Grand Junction Co0:32:30 275073  20 Team Dayton Cycing
16463.29cathy frampton   La Grange, IL0:32:30 275322  Project 5 Racing
17468.65Sue Semaszczuk   Lincolnwood, IL0:32:30 240476  23 ABD
18474.02Ginger Sides   Naperville, IL0:32:30 170599  11 Project 5 Racing
19479.38Angela Theriault   Whitefish Bay, WI0:32:30 210864  25 Café Hollander RDC
20484.74Maia Orabi (2 - Cat3)   Shelby Twp, MI0:32:30 246674  27 American C&F
21490.11Jerel Lynn Waide   Durham, NC0:32:30 277863  10 Project Five Racing
22Cynthia Lou   0:32:30  22 
23500.83Gwendolyn Norcross (1 - Cat4)   Chicago, IL0:32:30 220684  14 xXx Racing
24506.20Vanessa Buccella   Chicago, IL0:32:30 296051  Spidermonkey Cycling
25Katie Isermann   0:32:30  Spidermonkey Cycling
26Kylee Martin   0:32:30  NONE
27Gina Brogan   0:32:30  29 
28Jen Agan   0:32:30  28 Vision Quest
29April Samuelson   0:32:30  21 

Report missing or incorrect license numbers

Volkswagen
SpyBonk BreakerUSACDFSierra NevadaShimano
UCI USA Cycling is the official governing body for all disciplines of competitive cycling in the United States. The 501c3, membership-based organization aims both to achieve sustained success in international cycling competition and to grow competitive cycling in America while delivering an exceptional customer experience.
View Children's Online Privacy Protection Policy
US Olympic Committee